Time;durP1;ratioP1;P1;durP2;ratioP2;P2;SDS_P1;SDS_P2;PMS_P1;PMS_P2;Temp;Humidity;BMP_temperature;BMP_pressure;BME280_temperature;BME280_humidity;BME280_pressure;Samples;Min_cycle;Max_cycle;Signal;HPM_P1;HPM_P2
2023/03/15 00:00:12;;;;;;;10.32;4.17;;;;;;;5.63;72.24;101096.22;1772735;81;21087;-38
2023/03/15 00:02:41;;;;;;;17.73;4.22;;;;;;;5.65;72.15;101087.91;1772668;81;21115;-40
2023/03/15 00:05:15;;;;;;;15.55;5.45;;;;;;;5.67;72.13;101083.53;1772568;81;21048;-40
2023/03/15 00:07:43;;;;;;;12.05;4.75;;;;;;;5.70;72.14;101074.77;1784778;79;21077;-40
2023/03/15 00:10:12;;;;;;;20.15;6.58;;;;;;;5.71;72.23;101081.29;1801662;80;21133;-39
2023/03/15 00:12:41;;;;;;;13.53;4.92;;;;;;;5.74;72.27;101081.71;1801771;79;21034;-37
2023/03/15 00:15:12;;;;;;;12.55;3.90;;;;;;;5.75;72.33;101081.66;1801871;80;21537;-37
2023/03/15 00:17:41;;;;;;;9.53;4.53;;;;;;;5.77;72.32;101077.31;1801583;79;21552;-37
2023/03/15 00:20:11;;;;;;;9.25;3.62;;;;;;;5.79;72.25;101071.62;1803054;79;21073;-40
2023/03/15 00:22:40;;;;;;;10.72;4.30;;;;;;;5.80;72.19;101070.71;1803201;79;21066;-38
2023/03/15 00:25:09;;;;;;;11.63;5.00;;;;;;;5.82;72.17;101067.23;1803063;79;21132;-39
2023/03/15 00:27:38;;;;;;;15.38;4.40;;;;;;;5.82;72.21;101066.78;1803175;79;21062;-38
2023/03/15 00:30:07;;;;;;;10.30;4.30;;;;;;;5.82;72.27;101068.53;1783899;79;21056;-38
2023/03/15 00:32:36;;;;;;;9.65;4.97;;;;;;;5.82;72.27;101064.61;1772530;81;21149;-40
2023/03/15 00:35:06;;;;;;;13.22;5.33;;;;;;;5.82;72.23;101058.08;1772670;81;21231;-39
2023/03/15 00:37:36;;;;;;;15.38;5.62;;;;;;;5.84;72.24;101057.61;1772460;81;21122;-39
2023/03/15 00:40:06;;;;;;;15.70;5.12;;;;;;;5.83;72.27;101063.71;1796223;79;21144;-39
2023/03/15 00:42:36;;;;;;;13.40;5.87;;;;;;;5.78;72.35;101059.42;1803204;79;21070;-39
2023/03/15 00:45:06;;;;;;;11.55;4.92;;;;;;;5.77;72.33;101057.72;1802988;79;21136;-40
2023/03/15 00:47:35;;;;;;;15.03;4.42;;;;;;;5.76;72.33;101055.11;1803185;79;21070;-39
2023/03/15 00:50:04;;;;;;;9.53;4.22;;;;;;;5.77;72.28;101052.48;1789438;79;21079;-39
2023/03/15 00:52:37;;;;;;;13.90;4.90;;;;;;;5.77;72.25;101055.09;1772734;81;21079;-38
2023/03/15 00:55:06;;;;;;;20.27;5.78;;;;;;;5.79;72.27;101055.94;1769825;81;21119;-38
2023/03/15 00:57:35;;;;;;;15.63;5.35;;;;;;;5.78;72.44;101048.97;1789485;80;21084;-39
2023/03/15 01:00:04;;;;;;;15.90;5.40;;;;;;;5.78;72.53;101056.81;1797436;80;21656;-38
2023/03/15 01:02:36;;;;;;;17.32;5.67;;;;;;;5.82;72.49;101048.48;1797053;78;21138;-38
2023/03/15 01:05:08;;;;;;;13.38;4.50;;;;;;;5.84;72.52;101055.00;1797463;80;21599;-38
2023/03/15 01:07:36;;;;;;;9.60;4.50;;;;;;;5.87;72.48;101056.27;1796875;80;21133;-38
2023/03/15 01:10:07;;;;;;;12.25;4.87;;;;;;;5.87;72.35;101048.44;1797465;80;21574;-39
2023/03/15 01:12:35;;;;;;;18.07;5.00;;;;;;;5.89;72.33;101055.80;1797521;80;21142;-38
2023/03/15 01:15:07;;;;;;;13.18;4.22;;;;;;;5.89;72.33;101059.73;1797466;80;21111;-38
2023/03/15 01:17:36;;;;;;;16.48;5.20;;;;;;;5.90;72.35;101058.82;1796684;80;21060;-37
2023/03/15 01:20:05;;;;;;;13.25;4.72;;;;;;;5.90;72.40;101050.98;1797472;80;21114;-37
2023/03/15 01:22:34;;;;;;;14.73;4.47;;;;;;;5.91;72.48;101056.64;1797475;80;21186;-38
2023/03/15 01:25:03;;;;;;;10.00;4.65;;;;;;;5.91;72.43;101054.03;1797487;80;21068;-37
2023/03/15 01:27:31;;;;;;;13.15;4.20;;;;;;;5.92;72.45;101057.05;1796831;80;21162;-41
2023/03/15 01:30:01;;;;;;;12.78;4.65;;;;;;;5.92;72.50;101053.13;1759363;81;21067;-37
2023/03/15 01:32:30;;;;;;;13.95;4.55;;;;;;;5.94;72.62;101051.38;1767367;81;21159;-38
2023/03/15 01:34:59;;;;;;;9.45;4.55;;;;;;;5.96;72.61;101053.55;1767170;81;21197;-38
2023/03/15 01:37:27;;;;;;;12.25;4.83;;;;;;;5.97;72.58;101061.80;1767015;81;21076;-38
2023/03/15 01:39:56;;;;;;;12.10;4.85;;;;;;;5.94;72.59;101060.08;1791746;80;21067;-39
2023/03/15 01:42:25;;;;;;;13.65;4.60;;;;;;;5.90;72.80;101059.70;1797486;80;21127;-39
2023/03/15 01:44:58;;;;;;;9.10;4.42;;;;;;;5.89;72.72;101055.80;1797542;80;21047;-39
2023/03/15 01:47:28;;;;;;;13.55;5.17;;;;;;;5.90;72.80;101062.32;1797560;80;21075;-39
2023/03/15 01:50:04;;;;;;;14.23;5.37;;;;;;;5.93;72.78;101057.48;1793348;80;21525;-40
2023/03/15 01:52:36;;;;;;;11.38;4.83;;;;;;;5.93;72.80;101045.72;1790724;80;21608;-39
2023/03/15 01:55:11;;;;;;;12.35;4.72;;;;;;;5.93;72.77;101041.80;1788917;80;21180;-39
2023/03/15 01:57:47;;;;;;;14.87;6.08;;;;;;;5.92;72.81;101042.67;1780295;80;21148;-39
2023/03/15 02:00:19;;;;;;;15.60;6.95;;;;;;;5.89;73.07;101050.58;1755504;80;21082;-40
2023/03/15 02:02:52;;;;;;;16.73;6.17;;;;;;;5.88;73.25;101059.29;1777416;80;21090;-39
2023/03/15 02:05:25;;;;;;;15.48;5.87;;;;;;;5.88;73.30;101056.67;1781881;80;21110;-39
2023/03/15 02:07:56;;;;;;;11.35;5.35;;;;;;;5.85;73.27;101059.36;1782142;80;21216;-38
2023/03/15 02:10:32;;;;;;;13.08;6.17;;;;;;;5.88;73.24;101044.91;1782618;80;21067;-38
2023/03/15 02:13:02;;;;;;;16.05;5.95;;;;;;;5.90;73.15;101040.11;1775848;80;21625;-40
2023/03/15 02:15:32;;;;;;;11.78;5.12;;;;;;;5.93;73.11;101039.19;1782214;80;21114;-40
2023/03/15 02:18:02;;;;;;;12.65;5.53;;;;;;;5.93;73.17;101043.10;1756175;80;21160;-39
2023/03/15 02:20:43;;;;;;;15.05;5.30;;;;;;;5.95;73.23;101026.95;1782564;80;21071;-39
2023/03/15 02:23:15;;;;;;;18.48;6.47;;;;;;;5.95;73.31;101031.76;1762627;80;21141;-39
2023/03/15 02:25:52;;;;;;;12.60;5.55;;;;;;;5.97;73.55;101033.05;1762792;81;21109;-38
2023/03/15 02:28:21;;;;;;;17.62;5.97;;;;;;;5.99;73.53;101023.43;1762856;81;21563;-38
2023/03/15 02:30:50;;;;;;;12.88;5.87;;;;;;;6.02;73.57;101021.23;1778755;80;21110;-38
2023/03/15 02:33:25;;;;;;;11.40;5.08;;;;;;;6.01;73.59;101019.03;1782144;80;21490;-39
2023/03/15 02:35:55;;;;;;;12.88;5.78;;;;;;;6.05;73.39;101018.12;1782090;80;21160;-39
2023/03/15 02:38:24;;;;;;;21.95;6.83;;;;;;;6.06;73.27;101009.38;1782133;80;21067;-39
2023/03/15 02:40:53;;;;;;;12.28;6.03;;;;;;;6.07;73.24;101001.97;1787699;80;21055;-39
2023/03/15 02:43:25;;;;;;;18.92;6.87;;;;;;;6.10;73.27;101010.20;1791268;80;21515;-38
2023/03/15 02:45:55;;;;;;;18.70;5.87;;;;;;;6.09;73.17;101008.03;1791276;80;21096;-38
2023/03/15 02:48:24;;;;;;;16.48;6.87;;;;;;;6.11;73.11;101007.56;1791386;80;21665;-38
2023/03/15 02:50:52;;;;;;;21.57;5.72;;;;;;;6.10;73.16;101008.44;1787617;80;21034;-38
2023/03/15 02:53:21;;;;;;;17.60;5.37;;;;;;;6.06;73.24;100996.30;1782181;80;21060;-38
2023/03/15 02:55:50;;;;;;;12.65;5.08;;;;;;;6.06;73.31;101001.53;1784142;80;21172;-39
2023/03/15 02:58:19;;;;;;;12.25;4.80;;;;;;;6.08;73.37;100998.91;1790695;80;21140;-37
2023/03/15 03:00:51;;;;;;;12.05;4.50;;;;;;;6.10;73.38;101003.20;1790120;80;21074;-38
2023/03/15 03:03:20;;;;;;;11.43;4.90;;;;;;;6.10;73.26;100999.28;1790701;80;21078;-38
2023/03/15 03:05:48;;;;;;;9.98;4.42;;;;;;;6.11;73.30;100998.41;1790711;80;21051;-38
2023/03/15 03:08:17;;;;;;;9.85;4.65;;;;;;;6.11;73.31;100994.48;1790777;80;21537;-38
2023/03/15 03:10:45;;;;;;;15.40;4.97;;;;;;;6.13;73.32;100988.78;1790315;80;21102;-39
2023/03/15 03:13:14;;;;;;;13.43;4.60;;;;;;;6.16;73.24;100982.20;1790565;80;21070;-39
2023/03/15 03:15:44;;;;;;;11.95;4.70;;;;;;;6.15;73.25;100984.39;1790796;80;21102;-38
2023/03/15 03:18:14;;;;;;;15.30;4.53;;;;;;;6.16;73.27;100983.94;1790669;80;21094;-39
2023/03/15 03:20:44;;;;;;;17.20;5.72;;;;;;;6.16;73.21;100976.98;1797901;78;21078;-38
2023/03/15 03:23:13;;;;;;;11.22;4.33;;;;;;;6.17;73.13;100977.38;1734408;81;21141;-37
2023/03/15 03:25:44;;;;;;;16.40;5.87;;;;;;;6.19;73.10;100969.52;1785544;80;21177;-43
2023/03/15 03:28:13;;;;;;;10.58;5.15;;;;;;;6.18;73.17;100967.80;1740496;81;21058;-39
2023/03/15 03:30:41;;;;;;;7.83;4.97;;;;;;;6.15;73.28;100970.01;1743894;81;21153;-41
2023/03/15 03:33:10;;;;;;;12.82;4.97;;;;;;;6.12;73.38;100971.81;1736895;81;21156;-38
2023/03/15 03:35:38;;;;;;;12.23;5.03;;;;;;;6.12;73.34;100960.94;1763830;81;21065;-40
2023/03/15 03:38:08;;;;;;;14.95;4.90;;;;;;;6.13;73.25;100962.64;1765294;81;21065;-39
2023/03/15 03:40:39;;;;;;;8.53;4.50;;;;;;;6.12;73.39;100954.40;1770311;80;21615;-38
2023/03/15 03:43:09;;;;;;;11.65;4.40;;;;;;;6.08;73.63;100969.69;1735740;81;21108;-39
2023/03/15 03:45:38;;;;;;;13.60;4.40;;;;;;;6.09;73.69;100967.51;1765004;81;21154;-40
2023/03/15 03:48:07;;;;;;;12.60;5.47;;;;;;;6.10;73.60;100960.06;1735732;82;21510;-36
2023/03/15 03:50:36;;;;;;;18.70;5.90;;;;;;;6.12;73.60;100961.35;1758226;81;21579;-40
2023/03/15 03:53:05;;;;;;;14.38;5.78;;;;;;;6.13;73.54;100961.33;1735547;83;21227;-40
2023/03/15 03:55:35;;;;;;;15.93;5.62;;;;;;;6.14;73.54;100970.03;1764400;81;21191;-39
2023/03/15 03:58:03;;;;;;;12.25;5.45;;;;;;;6.16;73.48;100961.30;1760444;81;21110;-39
2023/03/15 04:00:43;;;;;;;15.72;5.45;;;;;;;6.18;73.46;100964.73;1780139;80;21127;-40
2023/03/15 04:03:12;;;;;;;16.17;5.50;;;;;;;6.19;73.35;100984.75;1780720;80;21533;-40
2023/03/15 04:05:43;;;;;;;17.05;6.17;;;;;;;6.18;73.36;100979.58;1784789;79;21070;-39
2023/03/15 04:08:13;;;;;;;20.15;5.92;;;;;;;6.16;73.38;100976.98;1781578;79;21082;-40
2023/03/15 04:10:42;;;;;;;18.07;5.72;;;;;;;6.15;73.50;100981.77;1777530;81;21131;-39
2023/03/15 04:13:12;;;;;;;13.78;5.10;;;;;;;6.16;73.44;100983.94;1785437;80;21682;-40
2023/03/15 04:15:40;;;;;;;16.60;5.37;;;;;;;6.17;73.38;100973.45;1786197;80;21068;-40
2023/03/15 04:18:10;;;;;;;11.50;5.37;;;;;;;6.20;73.43;100966.02;1786236;80;21091;-38
2023/03/15 04:20:45;;;;;;;19.62;5.12;;;;;;;6.24;73.46;100966.38;1785916;80;21103;-40
2023/03/15 04:23:11;;;;;;;13.50;4.40;;;;;;;6.27;73.40;100969.37;1785721;80;21076;-40
2023/03/15 04:25:53;;;;;;;16.42;4.70;;;;;;;6.31;73.39;100968.45;1755196;81;21166;-38
2023/03/15 04:28:26;;;;;;;15.70;5.47;;;;;;;6.34;73.35;100972.30;1751283;81;21166;-39
2023/03/15 04:30:57;;;;;;;14.40;5.30;;;;;;;6.37;73.36;100973.56;1776146;81;21532;-39
2023/03/15 04:33:39;;;;;;;14.10;4.80;;;;;;;6.40;73.35;100964.37;1775516;81;21580;-38
2023/03/15 04:36:19;;;;;;;12.40;5.00;;;;;;;6.43;73.35;100964.75;1781470;79;21065;-40
2023/03/15 04:39:06;;;;;;;9.83;4.47;;;;;;;6.46;73.33;100976.02;1780841;80;21139;-40
2023/03/15 04:41:48;;;;;;;11.53;3.93;;;;;;;6.49;73.31;100972.05;1777756;80;21077;-40
2023/03/15 04:44:26;;;;;;;12.15;4.45;;;;;;;6.54;73.24;100975.41;1777148;81;21135;-42
2023/03/15 04:47:13;;;;;;;17.30;4.00;;;;;;;6.57;73.15;100975.37;1777903;81;21087;-43
2023/03/15 04:49:43;;;;;;;11.30;4.20;;;;;;;6.63;73.05;100977.46;1775850;81;21127;-42
2023/03/15 04:52:28;;;;;;;15.05;5.05;;;;;;;6.67;72.98;100975.20;1776162;81;21185;-40
2023/03/15 04:55:08;;;;;;;11.28;4.50;;;;;;;6.71;72.86;100969.00;1777900;80;21718;-40
2023/03/15 04:57:48;;;;;;;10.82;4.30;;;;;;;6.73;72.87;100971.14;1777728;80;21252;-40
2023/03/15 05:00:21;;;;;;;22.13;5.97;;;;;;;6.76;72.88;100975.87;1768727;80;21137;-40
2023/03/15 05:03:00;;;;;;;15.48;4.60;;;;;;;6.82;72.81;100976.66;1784497;80;21161;-43
2023/03/15 05:05:47;;;;;;;15.65;4.58;;;;;;;6.87;72.80;100976.12;1785261;80;21135;-41
2023/03/15 05:08:20;;;;;;;13.08;4.22;;;;;;;6.91;72.74;100979.94;1750476;80;21545;-41
2023/03/15 05:10:50;;;;;;;22.95;5.55;;;;;;;6.95;72.69;100982.94;1767230;80;21138;-40
2023/03/15 05:13:31;;;;;;;19.50;5.55;;;;;;;6.98;72.63;100985.08;1781469;80;21630;-41
2023/03/15 05:16:07;;;;;;;16.20;3.77;;;;;;;7.03;72.55;100977.99;1785213;80;21135;-42
2023/03/15 05:18:40;;;;;;;17.92;4.65;;;;;;;7.06;72.48;100989.69;1770099;80;21567;-39
2023/03/15 05:21:27;;;;;;;12.78;5.83;;;;;;;7.09;72.43;100989.64;1785364;80;21533;-40
2023/03/15 05:23:59;;;;;;;;;;;;;;;7.11;72.40;100983.92;1772553;80;21082;-38
2023/03/15 05:26:36;;;;;;;12.98;3.30;;;;;;;7.13;72.46;100978.20;1740801;80;20166;-42
2023/03/15 05:29:16;;;;;;;12.85;4.72;;;;;;;7.12;72.45;100959.47;1783550;80;21122;-41
2023/03/15 05:31:46;;;;;;;12.88;4.37;;;;;;;7.12;72.47;100983.89;1770432;80;21187;-39
2023/03/15 05:34:26;;;;;;;233.43;81.35;;;;;;;7.15;72.54;100978.57;1772182;80;21122;-39
2023/03/15 05:37:02;;;;;;;12.15;5.70;;;;;;;7.20;72.53;100986.34;1769993;81;21577;-36
2023/03/15 05:39:33;;;;;;;9.15;4.08;;;;;;;7.23;72.48;100983.67;1772352;81;21134;-39
2023/03/15 05:42:04;;;;;;;40.65;14.50;;;;;;;7.22;72.52;100979.77;1723796;81;21117;-36
2023/03/15 05:44:53;;;;;;;43.95;15.88;;;;;;;7.25;72.50;100975.76;1780684;79;21100;-39
2023/03/15 05:47:24;;;;;;;23.85;7.50;;;;;;;7.29;72.45;100974.36;1779334;80;21443;-40
2023/03/15 05:50:07;;;;;;;85.07;31.70;;;;;;;7.35;72.40;100978.15;1781557;80;21313;-40
2023/03/15 05:52:43;;;;;;;14.45;8.28;;;;;;;7.40;72.30;100971.97;1788177;80;21183;-39
2023/03/15 05:55:22;;;;;;;13.03;5.72;;;;;;;7.40;72.26;100964.97;1759252;80;21611;-37
2023/03/15 05:58:08;;;;;;;7.05;2.67;;;;;;;7.39;72.25;100966.30;1731311;81;21661;-37
2023/03/15 06:00:38;;;;;;;15.23;6.87;;;;;;;7.39;72.26;100975.47;1791924;78;21077;-40
2023/03/15 06:03:08;;;;;;;14.15;6.17;;;;;;;7.39;72.28;100961.91;1805904;78;21066;-38
2023/03/15 06:05:42;;;;;;;9.75;4.80;;;;;;;7.43;72.38;100959.67;1799850;79;21093;-40
2023/03/15 06:08:12;;;;;;;13.20;5.62;;;;;;;7.51;72.35;100958.17;1805587;79;21097;-40
2023/03/15 06:10:43;;;;;;;8.43;4.17;;;;;;;7.59;72.24;100968.48;1806051;79;21670;-39
2023/03/15 06:13:12;;;;;;;11.88;4.60;;;;;;;7.59;72.25;100954.06;1800189;79;21491;-39
2023/03/15 06:15:41;;;;;;;12.37;6.97;;;;;;;7.59;72.22;100944.89;1800282;80;21205;-38
2023/03/15 06:18:12;;;;;;;12.53;5.65;;;;;;;7.65;72.16;100941.66;1800193;80;21611;-37
2023/03/15 06:20:41;;;;;;;8.65;3.50;;;;;;;7.74;72.07;100947.99;1804420;79;21461;-38
2023/03/15 06:23:11;;;;;;;8.38;3.92;;;;;;;7.86;71.97;100944.69;1805342;79;21152;-39
2023/03/15 06:25:44;;;;;;;11.08;4.35;;;;;;;8.01;71.77;100940.83;1805617;79;21501;-39
2023/03/15 06:28:14;;;;;;;13.43;4.47;;;;;;;8.19;71.51;100928.97;1805867;79;21598;-39
2023/03/15 06:30:44;;;;;;;12.88;5.75;;;;;;;8.37;71.37;100928.95;1805142;79;21096;-39
2023/03/15 06:33:13;;;;;;;14.90;5.47;;;;;;;8.53;71.18;100928.13;1805725;79;21560;-38
2023/03/15 06:35:42;;;;;;;13.58;5.83;;;;;;;8.62;70.95;100917.38;1805750;79;21121;-39
2023/03/15 06:38:12;;;;;;;10.48;5.47;;;;;;;8.66;70.78;100921.63;1805713;79;21143;-38
2023/03/15 06:40:40;;;;;;;14.55;6.05;;;;;;;8.63;70.68;100919.08;1805764;79;21032;-38
2023/03/15 06:43:13;;;;;;;9.88;4.75;;;;;;;8.61;70.59;100924.82;1805790;79;21067;-37
2023/03/15 06:45:40;;;;;;;15.00;5.30;;;;;;;8.62;70.58;100930.03;1805452;79;21593;-37
2023/03/15 06:48:08;;;;;;;11.15;5.20;;;;;;;8.60;70.69;100921.80;1805308;79;21094;-37
2023/03/15 06:50:37;;;;;;;13.40;5.45;;;;;;;8.62;70.70;100922.63;1803967;79;21187;-37
2023/03/15 06:53:05;;;;;;;12.10;3.75;;;;;;;8.63;70.57;100926.95;1804695;79;21173;-34
2023/03/15 06:55:34;;;;;;;10.05;4.47;;;;;;;8.68;70.64;100923.75;1804707;79;21093;-34
2023/03/15 06:58:03;;;;;;;10.15;4.37;;;;;;;8.75;70.47;100936.27;1804685;79;21062;-35
2023/03/15 07:00:31;;;;;;;11.80;4.53;;;;;;;8.80;70.37;100927.81;1800374;79;21094;-35
2023/03/15 07:03:00;;;;;;;8.63;4.67;;;;;;;8.95;70.42;100912.91;1796601;80;21136;-35
2023/03/15 07:05:29;;;;;;;11.38;4.65;;;;;;;9.17;70.08;100917.07;1796096;79;21153;-35
2023/03/15 07:07:58;;;;;;;10.45;5.12;;;;;;;9.42;69.71;100904.02;1802956;79;21187;-36
2023/03/15 07:10:27;;;;;;;8.60;3.98;;;;;;;9.61;69.43;100907.40;1803110;79;21583;-37
2023/03/15 07:12:55;;;;;;;9.45;3.75;;;;;;;9.92;68.84;100905.91;1802921;79;21156;-35
2023/03/15 07:15:24;;;;;;;10.18;4.42;;;;;;;10.50;68.38;100902.21;1802955;79;21144;-35
2023/03/15 07:17:53;;;;;;;8.53;4.65;;;;;;;11.88;67.34;100898.14;1802397;79;21548;-35
2023/03/15 07:20:21;;;;;;;12.98;5.20;;;;;;;13.16;65.70;100903.53;1802949;79;21046;-35
2023/03/15 07:22:50;;;;;;;9.25;4.83;;;;;;;13.69;64.37;100893.50;1803098;79;21160;-35
2023/03/15 07:25:24;;;;;;;14.07;5.00;;;;;;;13.66;63.90;100893.64;1803187;79;21066;-36
2023/03/15 07:27:52;;;;;;;9.98;4.83;;;;;;;13.35;64.13;100892.95;1801135;78;21034;-36
2023/03/15 07:30:22;;;;;;;13.38;4.40;;;;;;;13.10;64.37;100897.59;1801653;80;21046;-36
2023/03/15 07:32:50;;;;;;;9.55;4.00;;;;;;;12.69;63.64;100896.41;1801700;80;21591;-36
2023/03/15 07:35:19;;;;;;;8.63;4.15;;;;;;;12.34;64.21;100893.56;1801642;80;21552;-34
2023/03/15 07:37:48;;;;;;;10.23;4.40;;;;;;;12.06;64.56;100894.34;1801761;79;21084;-35
2023/03/15 07:40:17;;;;;;;10.95;5.05;;;;;;;11.83;64.58;100886.06;1803498;79;21050;-35
2023/03/15 07:42:45;;;;;;;17.12;5.35;;;;;;;11.67;64.70;100885.83;1804738;79;21091;-36
2023/03/15 07:45:14;;;;;;;11.78;4.45;;;;;;;11.65;64.82;100891.64;1804706;79;21090;-36
2023/03/15 07:47:43;;;;;;;11.78;4.87;;;;;;;11.74;64.68;100885.98;1804029;79;21152;-36
2023/03/15 07:50:12;;;;;;;15.10;5.10;;;;;;;11.83;64.46;100879.00;1803164;79;21074;-36
2023/03/15 07:52:40;;;;;;;11.95;4.92;;;;;;;12.14;64.11;100878.59;1776360;79;21067;-35
2023/03/15 07:55:09;;;;;;;20.17;5.35;;;;;;;12.52;63.84;100880.45;1772442;81;21060;-35
2023/03/15 07:57:38;;;;;;;15.55;5.53;;;;;;;12.85;63.34;100865.31;1743859;82;21168;-34
2023/03/15 08:00:10;;;;;;;19.95;7.65;;;;;;;12.94;62.99;100863.09;1726141;82;21116;-34
2023/03/15 08:02:40;;;;;;;23.60;9.25;;;;;;;12.94;62.95;100855.62;1762392;81;21136;-34
2023/03/15 08:05:09;;;;;;;24.00;9.28;;;;;;;12.94;62.59;100855.62;1762171;81;21067;-35
2023/03/15 08:07:38;;;;;;;22.15;10.23;;;;;;;13.01;62.24;100856.21;1762218;81;21074;-35
2023/03/15 08:10:08;;;;;;;22.32;10.13;;;;;;;13.00;62.14;100850.05;1778468;80;21228;-35
2023/03/15 08:12:38;;;;;;;19.85;8.55;;;;;;;13.13;62.25;100852.52;1793815;80;21070;-35
2023/03/15 08:15:07;;;;;;;23.52;9.03;;;;;;;13.29;62.11;100848.65;1793784;80;21082;-35
2023/03/15 08:17:36;;;;;;;24.98;9.38;;;;;;;13.48;61.56;100845.13;1793807;80;21042;-35
2023/03/15 08:20:10;;;;;;;22.15;7.90;;;;;;;13.82;60.83;100844.78;1793422;80;21133;-35
2023/03/15 08:22:37;;;;;;;27.32;8.43;;;;;;;13.85;60.40;100840.19;1790568;80;21686;-35
2023/03/15 08:25:07;;;;;;;20.10;8.95;;;;;;;14.04;60.28;100837.92;1790758;80;21584;-35
2023/03/15 08:27:37;;;;;;;30.55;12.63;;;;;;;14.28;59.84;100846.38;1790794;80;21091;-35
2023/03/15 08:30:06;;;;;;;15.50;6.70;;;;;;;14.78;59.11;100832.69;1790672;80;21070;-34
2023/03/15 08:32:35;;;;;;;17.67;6.78;;;;;;;15.44;58.14;100833.79;1791417;80;21160;-35
2023/03/15 08:35:04;;;;;;;9.45;4.53;;;;;;;15.75;57.76;100819.21;1790714;80;21046;-35
2023/03/15 08:37:33;;;;;;;14.20;5.30;;;;;;;15.68;57.78;100825.34;1791020;80;21137;-39
2023/03/15 08:40:08;;;;;;;8.13;4.03;;;;;;;15.66;57.50;100818.39;1795850;80;21127;-35
2023/03/15 08:42:32;;;;;;;9.20;4.20;;;;;;;15.68;56.84;100821.36;1796779;78;21064;-35
2023/03/15 08:45:00;;;;;;;12.07;4.65;;;;;;;15.70;56.36;100812.83;1797344;80;21060;-35
2023/03/15 08:47:29;;;;;;;7.90;3.37;;;;;;;15.92;55.64;100803.63;1797524;80;21067;-35
2023/03/15 08:49:58;;;;;;;12.45;5.30;;;;;;;16.52;55.26;100799.92;1793448;80;21144;-35
2023/03/15 08:52:27;;;;;;;10.13;4.92;;;;;;;17.05;54.29;100786.34;1790745;80;21046;-35
2023/03/15 08:54:56;;;;;;;10.78;4.70;;;;;;;17.84;53.35;100783.28;1795633;78;21566;-35
2023/03/15 08:57:25;;;;;;;9.63;4.10;;;;;;;18.55;52.26;100765.00;1797375;80;21090;-36
2023/03/15 08:59:54;;;;;;;10.38;4.60;;;;;;;19.18;51.00;100763.09;1798267;79;21078;-37
2023/03/15 09:02:23;;;;;;;17.00;8.20;;;;;;;19.35;50.12;100768.50;1794484;80;21072;-34
2023/03/15 09:04:51;;;;;;;17.50;8.38;;;;;;;18.61;50.57;100769.03;1794619;80;21118;-35
2023/03/15 09:07:20;;;;;;;23.25;5.58;;;;;;;17.91;51.14;100765.11;1796352;80;21062;-34
2023/03/15 09:09:53;;;;;;;13.62;6.47;;;;;;;17.48;51.54;100766.17;1796111;80;21182;-38
2023/03/15 09:12:20;;;;;;;17.70;6.55;;;;;;;17.09;51.84;100761.72;1790519;80;21082;-36
2023/03/15 09:14:48;;;;;;;15.90;7.12;;;;;;;16.66;52.23;100767.16;1790796;80;21634;-35
2023/03/15 09:17:17;;;;;;;14.38;6.95;;;;;;;16.24;52.79;100772.90;1790742;79;21066;-35
2023/03/15 09:19:46;;;;;;;18.55;6.95;;;;;;;15.83;53.15;100775.34;1790720;80;21066;-36
2023/03/15 09:22:14;;;;;;;13.55;6.78;;;;;;;15.56;53.71;100770.32;1790947;80;21023;-36
2023/03/15 09:24:43;;;;;;;14.80;6.05;;;;;;;15.42;54.08;100761.39;1790699;80;21137;-36
2023/03/15 09:27:12;;;;;;;12.65;5.33;;;;;;;15.38;54.26;100754.56;1790860;80;21133;-36
2023/03/15 09:29:40;;;;;;;9.65;5.20;;;;;;;15.34;54.34;100758.31;1790856;80;21556;-37
2023/03/15 09:32:10;;;;;;;15.63;7.75;;;;;;;15.20;54.59;100756.97;1797742;80;21118;-36
2023/03/15 09:34:40;;;;;;;15.03;7.65;;;;;;;14.98;54.77;100758.19;1801720;80;21563;-37
2023/03/15 09:37:09;;;;;;;23.70;9.65;;;;;;;14.75;55.10;100749.36;1798517;80;21735;-36
2023/03/15 09:39:38;;;;;;;15.15;7.12;;;;;;;14.56;55.48;100748.19;1796932;80;21032;-37
2023/03/15 09:42:09;;;;;;;15.68;6.85;;;;;;;14.41;55.91;100749.89;1781125;80;21026;-37
2023/03/15 09:44:53;;;;;;;14.73;6.75;;;;;;;14.37;56.20;100752.33;1796132;80;21540;-37
2023/03/15 09:47:28;;;;;;;;;;;;;;;14.34;56.33;100761.75;1765708;81;21082;-39
2023/03/15 09:50:29;;;;;;;14.90;6.90;;;;;;;14.28;56.42;100752.34;1763849;80;20156;-35
2023/03/15 09:53:06;;;;;;;12.25;6.62;;;;;;;14.21;56.72;100750.48;1763684;81;21494;-37
2023/03/15 09:55:35;;;;;;;10.63;4.97;;;;;;;14.07;56.86;100750.38;1763512;81;21145;-39
2023/03/15 09:58:06;;;;;;;10.70;5.53;;;;;;;13.90;56.94;100753.44;1763578;81;21082;-37
2023/03/15 10:00:47;;;;;;;9.75;4.47;;;;;;;13.83;57.25;100752.08;1764039;81;21545;-37
2023/03/15 10:03:30;;;;;;;11.55;5.40;;;;;;;13.79;57.36;100759.77;1771724;81;21532;-37
2023/03/15 10:06:05;;;;;;;12.37;5.00;;;;;;;13.80;57.48;100768.11;1771789;81;21125;-42
2023/03/15 10:08:33;;;;;;;10.23;5.40;;;;;;;13.81;57.61;100771.61;1770794;81;21078;-38
2023/03/15 10:11:40;;;;;;;12.68;6.22;;;;;;;13.77;57.59;100771.38;1771772;81;21086;-38
2023/03/15 10:14:47;;;;;;;13.88;6.37;;;;;;;13.73;57.66;100768.03;1771515;81;21651;-37
2023/03/15 10:17:36;;;;;;;15.38;6.47;;;;;;;13.71;57.82;100764.62;1771833;80;21580;-37
2023/03/15 10:20:17;;;;;;;14.65;6.35;;;;;;;13.78;58.01;100763.84;1771588;81;21074;-37
2023/03/15 10:22:47;;;;;;;12.50;6.00;;;;;;;13.87;58.07;100748.33;1771478;81;21157;-39
2023/03/15 10:25:18;;;;;;;11.25;5.80;;;;;;;13.96;58.02;100750.09;1771703;81;21074;-37
2023/03/15 10:27:59;;;;;;;16.57;6.45;;;;;;;14.02;57.99;100745.81;1771906;81;21066;-38
2023/03/15 10:30:32;;;;;;;16.82;6.62;;;;;;;14.13;57.98;100739.47;1772928;81;21573;-38
2023/03/15 10:33:04;;;;;;;18.95;6.47;;;;;;;14.32;57.92;100731.84;1764277;81;21087;-38
2023/03/15 10:35:33;;;;;;;13.20;5.60;;;;;;;14.41;57.81;100731.34;1764184;81;21222;-38
2023/03/15 10:38:02;;;;;;;16.10;7.15;;;;;;;14.54;57.78;100741.64;1764109;81;21081;-38
2023/03/15 10:40:52;;;;;;;16.97;7.17;;;;;;;14.71;57.71;100738.55;1764176;81;21512;-37
2023/03/15 10:43:30;;;;;;;13.00;6.65;;;;;;;14.87;57.63;100726.14;1764132;81;21042;-38
2023/03/15 10:46:11;;;;;;;14.73;5.97;;;;;;;15.05;57.52;100730.86;1764524;80;21126;-37
2023/03/15 10:48:42;;;;;;;11.97;5.72;;;;;;;15.18;57.48;100727.00;1746304;81;21109;-37
2023/03/15 10:51:22;;;;;;;9.93;5.25;;;;;;;15.33;57.35;100735.87;1746397;81;21621;-37
2023/03/15 10:54:13;;;;;;;20.17;8.05;;;;;;;15.51;57.19;100721.97;1830429;78;21065;-45
2023/03/15 10:56:48;;;;;;;14.13;6.03;;;;;;;15.66;57.03;100719.73;1822466;78;21061;-41
2023/03/15 10:59:23;;;;;;;18.05;6.53;;;;;;;15.71;56.92;100711.00;1833095;78;21124;-37
2023/03/15 11:01:54;;;;;;;20.60;8.05;;;;;;;15.77;56.88;100697.41;1831233;78;21087;-46
2023/03/15 11:04:30;;;;;;;18.10;7.17;;;;;;;15.79;56.77;100695.50;1822688;78;21503;-50
2023/03/15 11:07:01;;;;;;;20.48;8.20;;;;;;;15.80;56.74;100705.16;1797460;80;21067;-56
2023/03/15 11:09:54;;;;;;;19.65;7.25;;;;;;;15.76;56.63;100698.34;1797356;80;21095;-57
2023/03/15 11:12:25;;;;;;;20.00;8.28;;;;;;;15.76;56.60;100689.53;1766668;80;21149;-47
2023/03/15 11:14:59;;;;;;;25.40;8.43;;;;;;;15.70;56.67;100689.40;1735128;81;21524;-48
2023/03/15 11:17:34;;;;;;;18.90;8.38;;;;;;;15.66;56.50;100689.22;1758239;80;21565;-46
2023/03/15 11:20:12;;;;;;;17.95;8.05;;;;;;;15.63;56.46;100689.39;1765603;80;21236;-48
2023/03/15 11:22:40;;;;;;;22.65;7.42;;;;;;;15.73;56.36;100685.24;1764827;81;21150;-51
2023/03/15 11:25:17;;;;;;;20.55;9.45;;;;;;;15.82;56.21;100689.14;1764969;80;21504;-50
2023/03/15 11:27:52;;;;;;;19.95;8.45;;;;;;;16.00;56.03;100688.48;1765073;80;21072;-44
2023/03/15 11:30:18;;;;;;;25.70;9.85;;;;;;;16.07;55.74;100677.85;1785990;80;21187;-48
2023/03/15 11:32:48;;;;;;;21.55;8.88;;;;;;;16.13;55.52;100680.59;1780815;80;21564;-46
2023/03/15 11:35:19;;;;;;;25.43;9.60;;;;;;;16.13;55.39;100682.77;1764789;81;21071;-44
2023/03/15 11:38:03;;;;;;;24.18;9.58;;;;;;;16.21;55.31;100684.93;1763296;81;21116;-60
2023/03/15 11:40:38;;;;;;;24.27;10.20;;;;;;;16.27;55.24;100686.34;1764657;80;21150;-57
2023/03/15 11:43:10;;;;;;;34.67;10.58;;;;;;;16.29;55.19;100683.14;1737175;83;21080;-50
2023/03/15 11:45:44;;;;;;;18.92;8.40;;;;;;;16.29;55.35;100677.34;1737178;82;21162;-46